sensor_id;sensor_type;location;lat;lon;timestamp;temperature;humidity
46608;DHT22;32330;51.936;7.184;2022-10-31T04:04:32;11.30;99.90
46608;DHT22;32330;51.936;7.184;2022-10-31T04:07:01;11.30;99.90
46608;DHT22;32330;51.936;7.184;2022-10-31T04:09:32;11.30;99.90
46608;DHT22;32330;51.936;7.184;2022-10-31T04:12:00;11.20;99.90
46608;DHT22;32330;51.936;7.184;2022-10-31T04:14:48;11.20;99.90
46608;DHT22;32330;51.936;7.184;2022-10-31T04:17:19;11.20;99.90
46608;DHT22;32330;51.936;7.184;2022-10-31T04:19:49;11.20;99.90
46608;DHT22;32330;51.936;7.184;2022-10-31T04:22:16;11.20;99.90
46608;DHT22;32330;51.936;7.184;2022-10-31T04:24:43;11.20;99.90
46608;DHT22;32330;51.936;7.184;2022-10-31T04:27:13;11.20;99.90
46608;DHT22;32330;51.936;7.184;2022-10-31T04:29:40;11.20;99.90
46608;DHT22;32330;51.936;7.184;2022-10-31T04:32:07;11.20;99.90
46608;DHT22;32330;51.936;7.184;2022-10-31T04:34:34;11.10;99.90
46608;DHT22;32330;51.936;7.184;2022-10-31T04:37:03;11.10;99.90
46608;DHT22;32330;51.936;7.184;2022-10-31T04:39:30;11.10;99.90
46608;DHT22;32330;51.936;7.184;2022-10-31T04:42:20;11.00;99.90
46608;DHT22;32330;51.936;7.184;2022-10-31T04:44:47;11.00;99.90
46608;DHT22;32330;51.936;7.184;2022-10-31T04:47:14;11.00;99.90
46608;DHT22;32330;51.936;7.184;2022-10-31T04:49:43;10.90;99.90
46608;DHT22;32330;51.936;7.184;2022-10-31T04:52:14;11.00;99.90
46608;DHT22;32330;51.936;7.184;2022-10-31T04:54:41;10.90;99.90
46608;DHT22;32330;51.936;7.184;2022-10-31T04:57:40;10.90;99.90
46608;DHT22;32330;51.936;7.184;2022-10-31T05:00:09;10.90;99.90
46608;DHT22;32330;51.936;7.184;2022-10-31T05:02:43;10.80;99.90
46608;DHT22;32330;51.936;7.184;2022-10-31T05:05:10;10.80;99.90
46608;DHT22;32330;51.936;7.184;2022-10-31T05:07:40;10.80;99.90
46608;DHT22;32330;51.936;7.184;2022-10-31T05:10:08;10.80;99.90
46608;DHT22;32330;51.936;7.184;2022-10-31T05:12:36;10.80;99.90
46608;DHT22;32330;51.936;7.184;2022-10-31T05:15:06;10.80;99.90
46608;DHT22;32330;51.936;7.184;2022-10-31T05:18:06;10.80;99.90
46608;DHT22;32330;51.936;7.184;2022-10-31T05:21:11;10.70;99.90
46608;DHT22;32330;51.936;7.184;2022-10-31T05:23:46;10.80;99.90
46608;DHT22;32330;51.936;7.184;2022-10-31T05:26:13;10.80;99.90
46608;DHT22;32330;51.936;7.184;2022-10-31T05:28:41;10.70;99.90
46608;DHT22;32330;51.936;7.184;2022-10-31T05:31:07;10.70;99.90
46608;DHT22;32330;51.936;7.184;2022-10-31T05:33:34;10.70;99.90
46608;DHT22;32330;51.936;7.184;2022-10-31T05:36:39;10.70;99.90
46608;DHT22;32330;51.936;7.184;2022-10-31T05:39:26;10.70;99.90
46608;DHT22;32330;51.936;7.184;2022-10-31T05:41:56;10.70;99.90
46608;DHT22;32330;51.936;7.184;2022-10-31T05:44:26;10.60;99.90
46608;DHT22;32330;51.936;7.184;2022-10-31T05:47:09;10.60;99.90
46608;DHT22;32330;51.936;7.184;2022-10-31T05:50:11;10.60;99.90
46608;DHT22;32330;51.936;7.184;2022-10-31T05:52:41;10.60;99.90
46608;DHT22;32330;51.936;7.184;2022-10-31T05:55:22;10.50;99.90
46608;DHT22;32330;51.936;7.184;2022-10-31T05:58:21;10.50;99.90
46608;DHT22;32330;51.936;7.184;2022-10-31T06:01:02;10.50;99.90
46608;DHT22;32330;51.936;7.184;2022-10-31T06:03:29;10.50;99.90
46608;DHT22;32330;51.936;7.184;2022-10-31T06:05:57;10.50;99.90
46608;DHT22;32330;51.936;7.184;2022-10-31T06:08:29;10.50;99.90
46608;DHT22;32330;51.936;7.184;2022-10-31T06:11:01;10.50;99.90
46608;DHT22;32330;51.936;7.184;2022-10-31T06:13:46;10.50;99.90
46608;DHT22;32330;51.936;7.184;2022-10-31T06:16:19;10.40;99.90
46608;DHT22;32330;51.936;7.184;2022-10-31T06:18:46;10.40;99.90
46608;DHT22;32330;51.936;7.184;2022-10-31T06:21:14;10.50;99.90
46608;DHT22;32330;51.936;7.184;2022-10-31T06:23:41;10.40;99.90
46608;DHT22;32330;51.936;7.184;2022-10-31T06:26:36;10.50;99.90
46608;DHT22;32330;51.936;7.184;2022-10-31T06:29:03;10.40;99.90
46608;DHT22;32330;51.936;7.184;2022-10-31T06:31:55;10.50;99.90
46608;DHT22;32330;51.936;7.184;2022-10-31T06:34:22;10.50;99.90
46608;DHT22;32330;51.936;7.184;2022-10-31T06:36:49;10.50;99.90
46608;DHT22;32330;51.936;7.184;2022-10-31T06:39:19;10.50;99.90
46608;DHT22;32330;51.936;7.184;2022-10-31T06:41:48;10.50;99.90
46608;DHT22;32330;51.936;7.184;2022-10-31T06:44:18;10.50;99.90
46608;DHT22;32330;51.936;7.184;2022-10-31T06:46:54;10.50;99.90
46608;DHT22;32330;51.936;7.184;2022-10-31T06:49:37;10.60;99.90
46608;DHT22;32330;51.936;7.184;2022-10-31T06:52:10;10.50;99.90
46608;DHT22;32330;51.936;7.184;2022-10-31T06:54:37;10.50;99.90
46608;DHT22;32330;51.936;7.184;2022-10-31T06:57:05;10.60;99.90
46608;DHT22;32330;51.936;7.184;2022-10-31T06:59:32;10.60;99.90
46608;DHT22;32330;51.936;7.184;2022-10-31T07:02:17;10.70;99.90
46608;DHT22;32330;51.936;7.184;2022-10-31T07:04:44;10.60;99.90
46608;DHT22;32330;51.936;7.184;2022-10-31T07:07:15;10.70;99.90
46608;DHT22;32330;51.936;7.184;2022-10-31T07:09:42;10.70;99.90
46608;DHT22;32330;51.936;7.184;2022-10-31T07:12:12;10.70;99.90
46608;DHT22;32330;51.936;7.184;2022-10-31T07:14:45;10.80;99.90
46608;DHT22;32330;51.936;7.184;2022-10-31T07:17:12;10.80;99.90
46608;DHT22;32330;51.936;7.184;2022-10-31T07:19:42;10.90;99.90
46608;DHT22;32330;51.936;7.184;2022-10-31T07:22:11;11.00;99.90
46608;DHT22;32330;51.936;7.184;2022-10-31T07:24:42;11.00;99.90
46608;DHT22;32330;51.936;7.184;2022-10-31T07:27:35;11.10;99.90
46608;DHT22;32330;51.936;7.184;2022-10-31T07:30:03;11.10;99.90
46608;DHT22;32330;51.936;7.184;2022-10-31T07:32:37;11.20;99.90
46608;DHT22;32330;51.936;7.184;2022-10-31T07:35:05;11.20;99.90
46608;DHT22;32330;51.936;7.184;2022-10-31T07:37:42;11.30;99.90
46608;DHT22;32330;51.936;7.184;2022-10-31T07:40:10;11.40;99.90
46608;DHT22;32330;51.936;7.184;2022-10-31T07:42:40;11.40;99.90
46608;DHT22;32330;51.936;7.184;2022-10-31T07:45:26;11.50;99.90
46608;DHT22;32330;51.936;7.184;2022-10-31T07:48:12;11.50;99.90
46608;DHT22;32330;51.936;7.184;2022-10-31T07:51:02;11.60;99.90
46608;DHT22;32330;51.936;7.184;2022-10-31T07:53:47;11.70;99.90
46608;DHT22;32330;51.936;7.184;2022-10-31T07:56:23;11.80;99.90
46608;DHT22;32330;51.936;7.184;2022-10-31T07:58:52;11.90;99.90
46608;DHT22;32330;51.936;7.184;2022-10-31T08:01:19;11.90;99.90
46608;DHT22;32330;51.936;7.184;2022-10-31T08:04:01;12.00;99.90
46608;DHT22;32330;51.936;7.184;2022-10-31T08:06:47;12.00;99.90
46608;DHT22;32330;51.936;7.184;2022-10-31T08:09:26;12.10;99.90
46608;DHT22;32330;51.936;7.184;2022-10-31T08:11:55;12.30;99.90
46608;DHT22;32330;51.936;7.184;2022-10-31T08:14:24;12.40;99.90
46608;DHT22;32330;51.936;7.184;2022-10-31T08:16:52;12.40;99.90
46608;DHT22;32330;51.936;7.184;2022-10-31T08:19:19;12.50;99.90
46608;DHT22;32330;51.936;7.184;2022-10-31T08:21:46;12.50;99.90
46608;DHT22;32330;51.936;7.184;2022-10-31T08:24:16;12.50;99.90
46608;DHT22;32330;51.936;7.184;2022-10-31T08:26:43;12.70;99.90
46608;DHT22;32330;51.936;7.184;2022-10-31T08:29:11;12.70;99.90
46608;DHT22;32330;51.936;7.184;2022-10-31T08:31:41;12.80;99.90
46608;DHT22;32330;51.936;7.184;2022-10-31T08:34:27;12.90;99.90
46608;DHT22;32330;51.936;7.184;2022-10-31T08:37:29;13.00;99.90
46608;DHT22;32330;51.936;7.184;2022-10-31T08:39:56;13.10;99.90
46608;DHT22;32330;51.936;7.184;2022-10-31T08:42:23;13.20;99.90
46608;DHT22;32330;51.936;7.184;2022-10-31T08:44:51;13.30;99.90
46608;DHT22;32330;51.936;7.184;2022-10-31T08:47:22;13.30;99.90
46608;DHT22;32330;51.936;7.184;2022-10-31T08:49:49;13.40;99.90
46608;DHT22;32330;51.936;7.184;2022-10-31T08:52:16;13.50;99.90
46608;DHT22;32330;51.936;7.184;2022-10-31T08:54:46;13.60;99.90
46608;DHT22;32330;51.936;7.184;2022-10-31T08:57:31;13.60;99.90
46608;DHT22;32330;51.936;7.184;2022-10-31T08:59:59;13.80;99.90
46608;DHT22;32330;51.936;7.184;2022-10-31T09:02:45;13.90;99.90
46608;DHT22;32330;51.936;7.184;2022-10-31T09:05:13;13.90;99.90
46608;DHT22;32330;51.936;7.184;2022-10-31T09:07:40;14.00;99.90
46608;DHT22;32330;51.936;7.184;2022-10-31T09:10:08;14.10;99.90
46608;DHT22;32330;51.936;7.184;2022-10-31T09:12:37;14.20;98.60
46608;DHT22;32330;51.936;7.184;2022-10-31T09:15:27;14.20;94.00
46608;DHT22;32330;51.936;7.184;2022-10-31T09:18:09;14.40;92.80
46608;DHT22;32330;51.936;7.184;2022-10-31T09:20:56;14.50;89.30
46608;DHT22;32330;51.936;7.184;2022-10-31T09:23:24;14.60;84.80
46608;DHT22;32330;51.936;7.184;2022-10-31T09:25:52;14.60;85.20
46608;DHT22;32330;51.936;7.184;2022-10-31T09:28:33;14.70;85.80
46608;DHT22;32330;51.936;7.184;2022-10-31T09:31:05;14.80;86.20
46608;DHT22;32330;51.936;7.184;2022-10-31T09:33:52;14.90;84.80
46608;DHT22;32330;51.936;7.184;2022-10-31T09:36:49;15.00;80.30
46608;DHT22;32330;51.936;7.184;2022-10-31T09:39:20;15.10;77.30
46608;DHT22;32330;51.936;7.184;2022-10-31T09:42:04;15.20;82.30
46608;DHT22;32330;51.936;7.184;2022-10-31T09:44:43;15.20;84.70
46608;DHT22;32330;51.936;7.184;2022-10-31T09:47:29;15.20;85.40
46608;DHT22;32330;51.936;7.184;2022-10-31T09:50:22;15.20;85.00
46608;DHT22;32330;51.936;7.184;2022-10-31T09:52:57;15.30;85.50
46608;DHT22;32330;51.936;7.184;2022-10-31T09:55:33;15.40;87.60
46608;DHT22;32330;51.936;7.184;2022-10-31T09:58:02;15.50;90.00
46608;DHT22;32330;51.936;7.184;2022-10-31T10:00:29;15.60;88.30
46608;DHT22;32330;51.936;7.184;2022-10-31T10:03:02;15.60;88.40
46608;DHT22;32330;51.936;7.184;2022-10-31T10:05:38;15.50;90.90
46608;DHT22;32330;51.936;7.184;2022-10-31T10:08:17;15.60;92.00
46608;DHT22;32330;51.936;7.184;2022-10-31T10:11:15;15.60;93.50
46608;DHT22;32330;51.936;7.184;2022-10-31T10:14:08;15.60;94.40
46608;DHT22;32330;51.936;7.184;2022-10-31T10:16:51;15.70;94.90
46608;DHT22;32330;51.936;7.184;2022-10-31T10:19:32;15.80;95.60
46608;DHT22;32330;51.936;7.184;2022-10-31T10:22:09;15.80;94.80
46608;DHT22;32330;51.936;7.184;2022-10-31T10:24:52;15.80;96.00
46608;DHT22;32330;51.936;7.184;2022-10-31T10:27:27;15.90;95.10
46608;DHT22;32330;51.936;7.184;2022-10-31T10:30:02;15.90;94.70
46608;DHT22;32330;51.936;7.184;2022-10-31T10:32:38;15.90;94.10
46608;DHT22;32330;51.936;7.184;2022-10-31T10:35:16;15.90;94.80
46608;DHT22;32330;51.936;7.184;2022-10-31T10:37:46;16.00;94.90
46608;DHT22;32330;51.936;7.184;2022-10-31T10:40:18;16.00;94.70
46608;DHT22;32330;51.936;7.184;2022-10-31T10:42:56;16.00;94.40
46608;DHT22;32330;51.936;7.184;2022-10-31T10:45:46;16.10;93.90
46608;DHT22;32330;51.936;7.184;2022-10-31T10:48:42;16.10;92.30
46608;DHT22;32330;51.936;7.184;2022-10-31T10:51:21;16.20;92.60
46608;DHT22;32330;51.936;7.184;2022-10-31T10:54:00;16.20;91.80
46608;DHT22;32330;51.936;7.184;2022-10-31T10:56:41;16.20;91.70
46608;DHT22;32330;51.936;7.184;2022-10-31T10:59:13;16.30;89.60
46608;DHT22;32330;51.936;7.184;2022-10-31T11:01:41;16.40;90.40
46608;DHT22;32330;51.936;7.184;2022-10-31T11:04:24;16.60;88.40
46608;DHT22;32330;51.936;7.184;2022-10-31T11:07:03;16.80;88.00
46608;DHT22;32330;51.936;7.184;2022-10-31T11:09:32;16.90;86.30
46608;DHT22;32330;51.936;7.184;2022-10-31T11:12:00;17.10;85.20
46608;DHT22;32330;51.936;7.184;2022-10-31T11:14:35;17.00;78.90
46608;DHT22;32330;51.936;7.184;2022-10-31T11:17:09;17.10;78.70
46608;DHT22;32330;51.936;7.184;2022-10-31T11:23:49;17.10;77.50
46608;DHT22;32330;51.936;7.184;2022-10-31T11:26:20;17.10;77.80
46608;DHT22;32330;51.936;7.184;2022-10-31T11:32:20;17.20;75.70
46608;DHT22;32330;51.936;7.184;2022-10-31T11:34:51;17.20;73.70
46608;DHT22;32330;51.936;7.184;2022-10-31T11:37:22;17.10;74.40
46608;DHT22;32330;51.936;7.184;2022-10-31T11:39:50;17.10;75.90
46608;DHT22;32330;51.936;7.184;2022-10-31T11:49:39;17.30;76.50
46608;DHT22;32330;51.936;7.184;2022-10-31T11:52:08;17.30;71.60
46608;DHT22;32330;51.936;7.184;2022-10-31T11:58:29;17.50;74.80
46608;DHT22;32330;51.936;7.184;2022-10-31T12:00:57;17.50;68.90
46608;DHT22;32330;51.936;7.184;2022-10-31T12:03:33;17.50;70.90
46608;DHT22;32330;51.936;7.184;2022-10-31T12:06:08;17.50;68.70
46608;DHT22;32330;51.936;7.184;2022-10-31T12:08:38;17.50;67.40
46608;DHT22;32330;51.936;7.184;2022-10-31T12:11:16;17.60;73.60
46608;DHT22;32330;51.936;7.184;2022-10-31T12:13:51;17.60;70.80
46608;DHT22;32330;51.936;7.184;2022-10-31T12:16:26;17.60;65.80
46608;DHT22;32330;51.936;7.184;2022-10-31T12:18:58;17.60;71.30
46608;DHT22;32330;51.936;7.184;2022-10-31T12:21:37;17.70;68.90
46608;DHT22;32330;51.936;7.184;2022-10-31T12:24:15;17.60;70.00
46608;DHT22;32330;51.936;7.184;2022-10-31T12:26:51;17.70;68.70
46608;DHT22;32330;51.936;7.184;2022-10-31T12:29:33;17.80;70.10
46608;DHT22;32330;51.936;7.184;2022-10-31T12:32:20;17.70;66.80
46608;DHT22;32330;51.936;7.184;2022-10-31T12:35:04;17.70;68.50
46608;DHT22;32330;51.936;7.184;2022-10-31T12:37:45;17.70;64.30
46608;DHT22;32330;51.936;7.184;2022-10-31T12:43:39;17.70;70.70
46608;DHT22;32330;51.936;7.184;2022-10-31T12:46:15;17.70;72.00
46608;DHT22;32330;51.936;7.184;2022-10-31T12:51:50;17.70;70.90
46608;DHT22;32330;51.936;7.184;2022-10-31T12:54:32;17.80;69.70
46608;DHT22;32330;51.936;7.184;2022-10-31T12:57:09;17.80;73.60
46608;DHT22;32330;51.936;7.184;2022-10-31T12:59:42;17.90;69.90
46608;DHT22;32330;51.936;7.184;2022-10-31T13:02:15;17.90;69.70
46608;DHT22;32330;51.936;7.184;2022-10-31T13:04:48;17.90;71.00
46608;DHT22;32330;51.936;7.184;2022-10-31T13:07:19;17.90;70.20
46608;DHT22;32330;51.936;7.184;2022-10-31T13:09:53;18.00;71.70
46608;DHT22;32330;51.936;7.184;2022-10-31T13:12:23;18.00;72.50
46608;DHT22;32330;51.936;7.184;2022-10-31T13:14:53;18.10;70.40
46608;DHT22;32330;51.936;7.184;2022-10-31T13:17:28;18.00;70.90
46608;DHT22;32330;51.936;7.184;2022-10-31T13:20:11;18.00;69.20
46608;DHT22;32330;51.936;7.184;2022-10-31T13:22:44;18.00;71.70
46608;DHT22;32330;51.936;7.184;2022-10-31T13:25:15;18.00;69.50
46608;DHT22;32330;51.936;7.184;2022-10-31T13:27:47;18.00;72.60
46608;DHT22;32330;51.936;7.184;2022-10-31T13:30:18;18.00;73.60
46608;DHT22;32330;51.936;7.184;2022-10-31T13:32:48;18.00;75.20
46608;DHT22;32330;51.936;7.184;2022-10-31T13:35:22;18.00;75.00
46608;DHT22;32330;51.936;7.184;2022-10-31T13:37:58;17.90;75.50
46608;DHT22;32330;51.936;7.184;2022-10-31T13:40:35;18.00;74.80
46608;DHT22;32330;51.936;7.184;2022-10-31T13:43:10;18.00;76.50
46608;DHT22;32330;51.936;7.184;2022-10-31T13:45:48;18.00;77.30
46608;DHT22;32330;51.936;7.184;2022-10-31T13:48:36;18.00;76.00
46608;DHT22;32330;51.936;7.184;2022-10-31T13:59:03;18.10;70.10
46608;DHT22;32330;51.936;7.184;2022-10-31T14:01:32;18.10;69.40
46608;DHT22;32330;51.936;7.184;2022-10-31T14:04:03;18.10;65.60
46608;DHT22;32330;51.936;7.184;2022-10-31T14:06:40;18.10;66.90
46608;DHT22;32330;51.936;7.184;2022-10-31T14:09:28;18.00;63.90
46608;DHT22;32330;51.936;7.184;2022-10-31T14:11:57;18.00;64.00
46608;DHT22;32330;51.936;7.184;2022-10-31T14:14:32;18.00;65.20
46608;DHT22;32330;51.936;7.184;2022-10-31T14:17:00;18.00;66.70
46608;DHT22;32330;51.936;7.184;2022-10-31T14:19:28;18.00;66.00
46608;DHT22;32330;51.936;7.184;2022-10-31T14:21:55;18.10;65.30
46608;DHT22;32330;51.936;7.184;2022-10-31T14:24:34;18.00;65.30
46608;DHT22;32330;51.936;7.184;2022-10-31T14:27:04;18.10;64.90
46608;DHT22;32330;51.936;7.184;2022-10-31T14:29:52;18.00;66.50
46608;DHT22;32330;51.936;7.184;2022-10-31T14:32:22;18.10;66.70
46608;DHT22;32330;51.936;7.184;2022-10-31T14:34:54;18.10;63.00
46608;DHT22;32330;51.936;7.184;2022-10-31T14:37:40;18.10;64.70
46608;DHT22;32330;51.936;7.184;2022-10-31T14:40:24;18.10;63.50
46608;DHT22;32330;51.936;7.184;2022-10-31T14:43:12;18.00;65.90
46608;DHT22;32330;51.936;7.184;2022-10-31T14:45:52;18.00;65.10
46608;DHT22;32330;51.936;7.184;2022-10-31T14:48:39;18.00;64.60
46608;DHT22;32330;51.936;7.184;2022-10-31T14:51:12;18.00;63.80
46608;DHT22;32330;51.936;7.184;2022-10-31T14:53:45;17.90;66.40
46608;DHT22;32330;51.936;7.184;2022-10-31T14:56:19;17.90;67.30
46608;DHT22;32330;51.936;7.184;2022-10-31T14:58:47;17.90;68.70
46608;DHT22;32330;51.936;7.184;2022-10-31T15:01:24;17.90;68.80
46608;DHT22;32330;51.936;7.184;2022-10-31T15:03:52;17.90;69.80
46608;DHT22;32330;51.936;7.184;2022-10-31T15:06:21;17.90;68.10
46608;DHT22;32330;51.936;7.184;2022-10-31T15:08:51;17.80;71.70
46608;DHT22;32330;51.936;7.184;2022-10-31T15:11:20;17.80;73.40
46608;DHT22;32330;51.936;7.184;2022-10-31T15:13:48;17.80;75.40
46608;DHT22;32330;51.936;7.184;2022-10-31T15:16:17;17.80;75.20
46608;DHT22;32330;51.936;7.184;2022-10-31T15:18:51;17.70;77.10
46608;DHT22;32330;51.936;7.184;2022-10-31T15:21:19;17.70;78.20
46608;DHT22;32330;51.936;7.184;2022-10-31T15:23:47;17.70;78.20
46608;DHT22;32330;51.936;7.184;2022-10-31T15:26:19;17.70;80.40
46608;DHT22;32330;51.936;7.184;2022-10-31T15:28:56;17.60;82.00
46608;DHT22;32330;51.936;7.184;2022-10-31T15:31:24;17.50;84.00
46608;DHT22;32330;51.936;7.184;2022-10-31T15:33:54;17.50;84.90
46608;DHT22;32330;51.936;7.184;2022-10-31T15:36:24;17.50;85.40
46608;DHT22;32330;51.936;7.184;2022-10-31T15:38:52;17.50;87.10
46608;DHT22;32330;51.936;7.184;2022-10-31T15:41:28;17.40;87.60
46608;DHT22;32330;51.936;7.184;2022-10-31T15:44:01;17.40;88.60
46608;DHT22;32330;51.936;7.184;2022-10-31T15:46:29;17.30;90.20
46608;DHT22;32330;51.936;7.184;2022-10-31T15:48:58;17.40;90.10
46608;DHT22;32330;51.936;7.184;2022-10-31T15:51:27;17.40;90.30
46608;DHT22;32330;51.936;7.184;2022-10-31T15:53:55;17.30;90.80
46608;DHT22;32330;51.936;7.184;2022-10-31T15:56:24;17.30;91.00
46608;DHT22;32330;51.936;7.184;2022-10-31T15:58:53;17.20;92.20
46608;DHT22;32330;51.936;7.184;2022-10-31T16:01:24;17.20;92.30
46608;DHT22;32330;51.936;7.184;2022-10-31T16:04:05;17.10;93.10
46608;DHT22;32330;51.936;7.184;2022-10-31T16:06:33;17.10;92.80
46608;DHT22;32330;51.936;7.184;2022-10-31T16:09:01;17.10;93.40
46608;DHT22;32330;51.936;7.184;2022-10-31T16:11:34;17.00;94.20
46608;DHT22;32330;51.936;7.184;2022-10-31T16:14:04;17.00;94.10
46608;DHT22;32330;51.936;7.184;2022-10-31T16:16:39;17.00;94.50
46608;DHT22;32330;51.936;7.184;2022-10-31T16:19:16;17.00;95.00
46608;DHT22;32330;51.936;7.184;2022-10-31T16:21:44;17.00;95.10
46608;DHT22;32330;51.936;7.184;2022-10-31T16:24:16;16.90;95.30
46608;DHT22;32330;51.936;7.184;2022-10-31T16:26:48;16.90;95.30
46608;DHT22;32330;51.936;7.184;2022-10-31T16:29:25;16.90;95.20
46608;DHT22;32330;51.936;7.184;2022-10-31T16:31:52;16.90;95.40
46608;DHT22;32330;51.936;7.184;2022-10-31T16:34:21;16.90;95.00
46608;DHT22;32330;51.936;7.184;2022-10-31T16:36:50;16.90;95.20
46608;DHT22;32330;51.936;7.184;2022-10-31T16:39:17;16.80;95.70
46608;DHT22;32330;51.936;7.184;2022-10-31T16:41:46;16.80;95.30
46608;DHT22;32330;51.936;7.184;2022-10-31T16:44:18;16.80;95.50
46608;DHT22;32330;51.936;7.184;2022-10-31T16:46:45;16.80;95.40
46608;DHT22;32330;51.936;7.184;2022-10-31T16:49:13;16.80;95.30
46608;DHT22;32330;51.936;7.184;2022-10-31T16:51:42;16.70;96.10
46608;DHT22;32330;51.936;7.184;2022-10-31T16:54:10;16.70;96.00
46608;DHT22;32330;51.936;7.184;2022-10-31T16:56:37;16.70;95.70
46608;DHT22;32330;51.936;7.184;2022-10-31T16:59:09;16.70;95.60
46608;DHT22;32330;51.936;7.184;2022-10-31T17:01:39;16.70;95.80
